createdAt,value
2022-10-26T00:02:46.151Z,0
2022-10-26T00:07:46.055Z,0
2022-10-26T00:12:46.226Z,0
2022-10-26T00:17:46.135Z,0
2022-10-26T00:22:46.018Z,0
2022-10-26T00:27:46.206Z,0
2022-10-26T00:32:46.018Z,0
2022-10-26T00:37:46.223Z,0
2022-10-26T00:42:46.262Z,0
2022-10-26T00:47:46.021Z,0
2022-10-26T00:52:46.062Z,0
2022-10-26T00:57:46.025Z,0
2022-10-26T01:02:46.182Z,0
2022-10-26T01:07:46.107Z,0
2022-10-26T01:12:45.986Z,0
2022-10-26T01:17:46.079Z,0
2022-10-26T01:22:45.995Z,0
2022-10-26T01:27:46.143Z,0
2022-10-26T01:32:45.983Z,0
2022-10-26T01:37:46.076Z,0
2022-10-26T01:42:46.018Z,0
2022-10-26T01:47:46.147Z,0
2022-10-26T01:52:46.015Z,0
2022-10-26T01:57:46.101Z,0
2022-10-26T02:02:46.008Z,0
2022-10-26T02:07:46.105Z,0
2022-10-26T02:12:45.954Z,0
2022-10-26T02:17:46.209Z,0
2022-10-26T02:22:45.969Z,0
2022-10-26T02:27:46.168Z,0
2022-10-26T02:32:45.956Z,0
2022-10-26T02:37:46.034Z,0
2022-10-26T02:42:45.991Z,0
2022-10-26T02:47:46.156Z,0
2022-10-26T02:52:46.041Z,0
2022-10-26T02:57:45.954Z,0
2022-10-26T03:02:47.569Z,0
2022-10-26T03:07:46.008Z,0
2022-10-26T03:12:46.076Z,0
2022-10-26T03:17:46.041Z,0
2022-10-26T03:22:45.951Z,0
2022-10-26T03:27:46.224Z,0
2022-10-26T03:32:45.944Z,0
2022-10-26T03:37:46.118Z,0
2022-10-26T03:42:46.104Z,0
2022-10-26T03:47:46.009Z,0
2022-10-26T03:52:46.187Z,0
2022-10-26T03:57:45.949Z,0
2022-10-26T04:02:45.986Z,0
2022-10-26T04:07:46.051Z,0
2022-10-26T04:12:45.933Z,0
2022-10-26T04:17:46.084Z,0
2022-10-26T04:22:45.936Z,0
2022-10-26T04:27:46.073Z,0
2022-10-26T04:32:45.983Z,0
2022-10-26T04:37:45.923Z,0
2022-10-26T04:42:46.140Z,0
2022-10-26T04:47:45.944Z,0
2022-10-26T04:52:45.970Z,0
2022-10-26T04:57:46.140Z,0
2022-10-26T05:02:45.938Z,0
2022-10-26T05:07:46.081Z,0
2022-10-26T05:12:45.878Z,0
2022-10-26T05:17:46.093Z,0
2022-10-26T05:22:46.057Z,0
2022-10-26T05:27:45.971Z,0
2022-10-26T05:32:45.974Z,0
2022-10-26T05:37:45.937Z,0
2022-10-26T05:42:46.104Z,0
2022-10-26T05:47:46.044Z,0
2022-10-26T05:52:45.926Z,0
2022-10-26T05:57:46.091Z,0
2022-10-26T06:02:46.071Z,0
2022-10-26T06:07:46.093Z,0
2022-10-26T06:12:46.093Z,0
2022-10-26T06:17:45.937Z,1
2022-10-26T06:22:45.965Z,3
2022-10-26T06:27:45.948Z,2
2022-10-26T06:32:45.995Z,3
2022-10-26T06:37:46.077Z,5
2022-10-26T06:42:45.866Z,7
2022-10-26T06:47:46.085Z,13
2022-10-26T06:52:45.898Z,10
2022-10-26T06:57:45.905Z,8
2022-10-26T07:02:45.978Z,8
2022-10-26T07:07:45.925Z,9
2022-10-26T07:12:45.928Z,9
2022-10-26T07:17:45.895Z,12
2022-10-26T07:22:45.914Z,15
2022-10-26T07:27:45.942Z,18
2022-10-26T07:32:46.086Z,24
2022-10-26T07:37:45.894Z,28
2022-10-26T07:42:47.547Z,38
2022-10-26T07:47:45.906Z,56
2022-10-26T07:52:45.874Z,73
2022-10-26T07:57:46.747Z,66
2022-10-26T08:02:45.902Z,64
2022-10-26T08:07:46.064Z,74
2022-10-26T08:12:46.295Z,99
2022-10-26T08:17:49.456Z,106
2022-10-26T08:22:49.494Z,107
2022-10-26T08:27:49.145Z,351
2022-10-26T08:32:49.430Z,471
2022-10-26T08:37:49.157Z,334
2022-10-26T08:42:49.388Z,136
2022-10-26T08:47:49.319Z,261
2022-10-26T08:52:49.129Z,696
2022-10-26T08:57:49.407Z,443
2022-10-26T09:02:49.151Z,273
2022-10-26T09:07:49.428Z,235
2022-10-26T09:12:49.369Z,257
2022-10-26T09:17:49.129Z,230
2022-10-26T09:22:49.321Z,330
2022-10-26T09:27:49.264Z,140
2022-10-26T09:32:49.383Z,293
2022-10-26T09:37:49.685Z,279
2022-10-26T09:42:49.433Z,245
2022-10-26T09:47:49.473Z,226
2022-10-26T09:52:49.635Z,209
2022-10-26T09:57:49.398Z,204
2022-10-26T10:02:49.642Z,247
2022-10-26T10:07:49.388Z,249
2022-10-26T10:12:49.494Z,241
2022-10-26T10:17:50.792Z,288
2022-10-26T10:22:49.438Z,373
2022-10-26T10:27:49.631Z,375
2022-10-26T10:32:49.654Z,359
2022-10-26T10:37:49.395Z,358
2022-10-26T10:42:49.546Z,369
2022-10-26T10:47:49.380Z,639
2022-10-26T10:52:49.628Z,607
2022-10-26T10:57:49.603Z,602
2022-10-26T11:02:49.402Z,593
2022-10-26T11:07:49.571Z,590
2022-10-26T11:12:49.391Z,595
2022-10-26T11:17:49.569Z,575
2022-10-26T11:22:49.655Z,598
2022-10-26T11:27:49.665Z,608
2022-10-26T11:32:49.612Z,608
2022-10-26T11:37:49.351Z,608
2022-10-26T11:42:49.557Z,608
2022-10-26T11:47:49.565Z,573
2022-10-26T11:52:49.732Z,561
2022-10-26T11:57:49.717Z,583
2022-10-26T12:02:49.420Z,581
2022-10-26T12:07:49.598Z,578
2022-10-26T12:12:49.697Z,593
2022-10-26T12:17:49.603Z,541
2022-10-26T12:22:49.620Z,496
2022-10-26T12:27:49.339Z,501
2022-10-26T12:32:50.087Z,176
2022-10-26T12:37:49.873Z,506
2022-10-26T12:42:49.602Z,549
2022-10-26T12:47:49.921Z,555
2022-10-26T12:52:49.924Z,511
2022-10-26T12:57:49.622Z,435
2022-10-26T13:02:49.945Z,402
2022-10-26T13:07:49.639Z,361
2022-10-26T13:12:49.934Z,230
2022-10-26T13:17:49.629Z,286
2022-10-26T13:22:49.949Z,224
2022-10-26T13:27:49.804Z,357
2022-10-26T13:32:49.628Z,430
2022-10-26T13:37:50.026Z,428
2022-10-26T13:42:49.640Z,395
2022-10-26T13:47:49.978Z,306
2022-10-26T13:52:49.899Z,320
2022-10-26T13:57:49.600Z,226
2022-10-26T14:02:49.993Z,121
2022-10-26T14:07:51.416Z,88
2022-10-26T14:12:49.936Z,81
2022-10-26T14:17:49.801Z,79
2022-10-26T14:22:49.655Z,66
2022-10-26T14:27:49.880Z,64
2022-10-26T14:32:49.981Z,55
2022-10-26T14:37:49.927Z,48
2022-10-26T14:42:49.733Z,43
2022-10-26T14:47:49.591Z,38
2022-10-26T14:52:49.916Z,36
2022-10-26T14:57:49.597Z,31
2022-10-26T15:02:49.927Z,29
2022-10-26T15:07:49.928Z,29
2022-10-26T15:12:49.615Z,24
2022-10-26T15:17:49.948Z,21
2022-10-26T15:22:50.653Z,19
2022-10-26T15:27:49.871Z,16
2022-10-26T15:32:49.714Z,17
2022-10-26T15:37:49.606Z,14
2022-10-26T15:42:49.890Z,12
2022-10-26T15:47:49.606Z,14
2022-10-26T15:52:49.645Z,6
2022-10-26T15:57:49.803Z,4
2022-10-26T16:02:49.618Z,1
2022-10-26T16:07:49.828Z,0
2022-10-26T16:12:49.594Z,0
2022-10-26T16:17:50.117Z,0
2022-10-26T16:22:49.781Z,0
2022-10-26T16:27:49.619Z,0
2022-10-26T16:32:49.784Z,0
2022-10-26T16:37:49.577Z,0
2022-10-26T16:42:49.759Z,0
2022-10-26T16:47:49.911Z,0
2022-10-26T16:52:49.586Z,0
2022-10-26T16:57:49.848Z,0
2022-10-26T17:02:49.602Z,0
2022-10-26T17:07:49.822Z,0
2022-10-26T17:12:50.045Z,0
2022-10-26T17:17:49.582Z,0
2022-10-26T17:22:49.756Z,0
2022-10-26T17:27:49.569Z,0
2022-10-26T17:32:49.868Z,0
2022-10-26T17:37:49.923Z,0
2022-10-26T17:42:49.866Z,0
2022-10-26T17:47:50.058Z,0
2022-10-26T17:52:49.799Z,0
2022-10-26T17:57:50.099Z,0
2022-10-26T18:02:50.068Z,0
2022-10-26T18:07:49.945Z,0
2022-10-26T18:12:50.079Z,0
2022-10-26T18:17:49.827Z,0
2022-10-26T18:22:50.040Z,0
2022-10-26T18:27:49.836Z,0
2022-10-26T18:32:50.129Z,0
2022-10-26T18:37:50.074Z,0
2022-10-26T18:42:49.822Z,0
2022-10-26T18:47:50.035Z,0
2022-10-26T18:52:49.815Z,0
2022-10-26T18:57:50.064Z,0
2022-10-26T19:02:51.409Z,0
2022-10-26T19:07:49.801Z,0
2022-10-26T19:12:50.151Z,0
2022-10-26T19:17:49.797Z,0
2022-10-26T19:22:49.918Z,0
2022-10-26T19:27:50.095Z,0
2022-10-26T19:32:49.826Z,0
2022-10-26T19:37:50.071Z,0
2022-10-26T19:42:50.088Z,0
2022-10-26T19:47:50.240Z,0
2022-10-26T19:52:50.243Z,0
2022-10-26T19:57:50.029Z,0
2022-10-26T20:02:50.321Z,0
2022-10-26T20:07:50.030Z,0
2022-10-26T20:12:50.245Z,0
2022-10-26T20:17:50.051Z,0
2022-10-26T20:22:50.423Z,0
2022-10-26T20:27:50.262Z,0
2022-10-26T20:32:50.048Z,0
2022-10-26T20:37:50.305Z,0
2022-10-26T20:47:50.325Z,0
2022-10-26T20:52:50.335Z,0
2022-10-26T20:57:50.038Z,0
2022-10-26T21:02:50.274Z,0
2022-10-26T21:07:50.073Z,0
2022-10-26T21:12:50.261Z,0
2022-10-26T21:17:50.330Z,0
2022-10-26T21:22:50.043Z,0
2022-10-26T21:27:50.355Z,0
2022-10-26T21:32:50.038Z,0
2022-10-26T21:37:50.256Z,0
2022-10-26T21:42:50.135Z,0
2022-10-26T21:47:50.235Z,0
2022-10-26T21:52:50.201Z,0
2022-10-26T21:57:50.101Z,0
2022-10-26T22:02:50.240Z,0
2022-10-26T22:07:50.197Z,0
2022-10-26T22:12:50.022Z,0
2022-10-26T22:17:50.273Z,0
2022-10-26T22:22:50.090Z,0
2022-10-26T22:27:50.196Z,0
2022-10-26T22:32:50.296Z,0
2022-10-26T22:37:50.008Z,0
2022-10-26T22:42:50.303Z,0
2022-10-26T22:47:50.017Z,0
2022-10-26T22:52:50.260Z,0
2022-10-26T22:57:50.296Z,0
2022-10-26T23:02:50.021Z,0
2022-10-26T23:07:50.238Z,0
2022-10-26T23:12:50.068Z,0
2022-10-26T23:17:50.296Z,0
2022-10-26T23:22:50.226Z,0
2022-10-26T23:27:49.973Z,0
2022-10-26T23:32:50.340Z,0
2022-10-26T23:37:49.964Z,0
2022-10-26T23:42:50.366Z,0
2022-10-26T23:47:50.234Z,0
2022-10-26T23:52:49.989Z,0
2022-10-26T23:57:50.214Z,0
